Skip Navigation Links
NOAA logo - Click to go to the NOAA homepage
NOAA's National Weather Service
Alaska Aviation Weather Unit
  NWS logo - Click to go to the NWS homepage
Left Navbar Graphic     15 AKDT = 23 GMT

   
NOAA is celebrating 200 years of science, service, and stewardship. Visit the NOAA 200th celebration Web site to learn more.
USA.gov is the U.S. Government's official Web portal to all Federal, state and local government Web resources and services.
Facebook
NWS on Facebook

Important Change Regarding the AAWU Web Presence

 

Over the last several months, the AAWU has been working to navigate its webpages to a nationally supported server. Security, as well as other needs, have necessitated the change.  We have been given an extension for the site changeover while we diligently work at addressing feedback received. As of July 14, 2017, aawu.arh.noaa.gov will be discontinued. The new AAWU web address is weather.gov/aawu. It is now live and will run in-parallel with the old site until it is discontinued on July 14, 2017. Please continue to send any feedback or questions regarding the new webpages to nws.ar.aawu.webauthors@noaa.gov.  Thank you for your patience during this time of transition.
AAWU Home :: Display TAF Add Bookmark
METAR PAGM 191756Z AUTO 35012KT 10SM BKN037 M03/M08 A2972 RMK AO2 SLP069
     T10281083 11017 21028 58014 FZRANO=

SPECI PAGM 191842Z AUTO 35015KT 10SM BKN028 OVC041 M03/M08 A2970 RMK
 AO2 FZRANO=

METAR PAGM 191856Z AUTO 35013KT 10SM BKN028 M03/M08 A2970 RMK AO2 SLP063
     T10281078 FZRANO=

PAGM 191913Z AUTO 36013KT 10SM SCT028 M03/M08 A2970 RMK AO2
     FZRANO=

SPECI PAGM 191921Z AUTO 35013KT 10SM BKN028 M03/M08 A2969 RMK AO2
     FZRANO=

SPECI PAGM 191949Z AUTO 35010KT 10SM BKN030 M02/M08 A2970 RMK AO2
     FZRANO=

METAR PAGM 191956Z AUTO 34012KT 10SM OVC032 M03/M08 A2969 RMK AO2 SLP062
     T10281078 FZRANO=

METAR PAGM 192156Z AUTO 33017KT 10SM OVC030 M02/M08 A2966 RMK AO2
 SLP050 T10171078 FZRANO=

METAR PAGM 192256Z AUTO 34018KT 10SM OVC032 M02/M08 A2964 RMK AO2
 SLP043 T10171078 FZRANO=


NOAA's National Weather Service
Alaska Aviation Weather Unit
6930 Sand Lake Road
Anchorage, AK 99502-1845
Disclaimer
Credits
Glossary
Privacy Policy
About Us
Career Opportunities
Contact AAWU Internet Services Site last modified: April, 17th 2012